Time;durP1;ratioP1;P1;durP2;ratioP2;P2;SDS_P1;SDS_P2;PMS_P1;PMS_P2;Temp;Humidity;BMP_temperature;BMP_pressure;BME280_temperature;BME280_humidity;BME280_pressure;Samples;Min_cycle;Max_cycle;Signal;HPM_P1;HPM_P2
2020/12/12 00:01:43;;;;;;;23.60;14.63;;;4.30;99.90;;;;;;4962607;28;20211;-83
2020/12/12 00:04:09;;;;;;;23.03;14.43;;;4.20;99.90;;;;;;4962847;28;20184;-82
2020/12/12 00:06:35;;;;;;;21.73;13.57;;;4.20;99.90;;;;;;4963737;28;20191;-82
2020/12/12 00:09:00;;;;;;;21.60;13.87;;;4.20;99.90;;;;;;4962643;28;20215;-82
2020/12/12 00:11:26;;;;;;;20.87;13.43;;;4.30;99.90;;;;;;4961487;28;20279;-83
2020/12/12 00:13:52;;;;;;;19.83;13.27;;;4.20;99.90;;;;;;4961976;28;20659;-83
2020/12/12 00:16:18;;;;;;;21.57;13.93;;;4.20;99.90;;;;;;4961829;28;20172;-83
2020/12/12 00:18:44;;;;;;;22.47;13.67;;;4.30;99.90;;;;;;4961344;28;20203;-82
2020/12/12 00:21:13;;;;;;;20.20;13.73;;;4.30;99.90;;;;;;4961216;28;20212;-83
2020/12/12 00:23:38;;;;;;;20.67;13.27;;;4.30;99.90;;;;;;4961119;28;20557;-82
2020/12/12 00:26:04;;;;;;;19.40;12.33;;;4.30;99.90;;;;;;4962690;28;20188;-83
2020/12/12 00:28:31;;;;;;;21.03;13.90;;;4.30;99.90;;;;;;4961468;28;20681;-84
2020/12/12 00:30:58;;;;;;;19.63;12.93;;;4.40;99.90;;;;;;4961772;28;20225;-84
2020/12/12 00:33:25;;;;;;;22.23;14.43;;;4.40;99.90;;;;;;4961172;28;20279;-83
2020/12/12 00:35:50;;;;;;;18.17;12.23;;;4.40;99.90;;;;;;4960073;28;20274;-83
2020/12/12 00:38:16;;;;;;;19.47;13.43;;;4.40;99.90;;;;;;4977536;28;20211;-84
2020/12/12 00:40:42;;;;;;;20.10;13.40;;;4.40;99.90;;;;;;4962516;28;20215;-84
2020/12/12 00:43:07;;;;;;;23.53;14.13;;;4.40;99.90;;;;;;4960211;28;20274;-84
2020/12/12 00:45:33;;;;;;;20.67;13.27;;;4.40;99.90;;;;;;4960189;28;20413;-84
2020/12/12 00:47:59;;;;;;;20.93;13.33;;;4.40;99.90;;;;;;4960875;28;20204;-84
2020/12/12 00:50:24;;;;;;;20.50;13.47;;;4.40;99.90;;;;;;4962357;28;20203;-84
2020/12/12 00:52:50;;;;;;;18.00;12.50;;;4.40;99.90;;;;;;4961839;28;20183;-85
2020/12/12 00:55:16;;;;;;;18.20;13.23;;;4.40;99.90;;;;;;4961114;28;20230;-83
2020/12/12 00:57:41;;;;;;;20.97;14.23;;;4.50;99.90;;;;;;4960050;28;20215;-81
2020/12/12 01:00:07;;;;;;;20.50;13.07;;;4.50;99.90;;;;;;4960343;28;20187;-83
2020/12/12 01:02:33;;;;;;;19.97;13.10;;;4.50;99.90;;;;;;4961944;28;20188;-83
2020/12/12 01:05:00;;;;;;;18.13;12.67;;;4.40;99.90;;;;;;4966562;28;20657;-84
2020/12/12 01:07:26;;;;;;;19.97;13.47;;;4.40;99.90;;;;;;4966530;28;20192;-85
2020/12/12 01:09:52;;;;;;;18.67;12.70;;;4.50;99.90;;;;;;4965769;28;20631;-83
2020/12/12 01:12:18;;;;;;;17.93;12.27;;;4.50;99.90;;;;;;4965572;28;20203;-84
2020/12/12 01:14:44;;;;;;;19.93;13.37;;;4.50;99.90;;;;;;4963523;28;20184;-82
2020/12/12 01:17:10;;;;;;;18.70;13.10;;;4.60;99.90;;;;;;4963642;28;20184;-81
2020/12/12 01:19:35;;;;;;;20.40;13.50;;;4.60;99.90;;;;;;4962987;28;20667;-83
2020/12/12 01:22:01;;;;;;;18.40;12.17;;;4.60;99.90;;;;;;4962923;28;20204;-84
2020/12/12 01:24:27;;;;;;;18.23;12.37;;;4.60;99.90;;;;;;4963177;28;20612;-83
2020/12/12 01:26:53;;;;;;;20.80;12.73;;;4.60;99.90;;;;;;4963319;28;20188;-84
2020/12/12 01:29:18;;;;;;;18.50;12.80;;;4.60;99.90;;;;;;4964431;28;20222;-84
2020/12/12 01:31:47;;;;;;;19.53;13.37;;;4.60;99.90;;;;;;4965610;28;20231;-84
2020/12/12 01:34:13;;;;;;;18.77;12.87;;;4.60;99.90;;;;;;4965357;28;20211;-85
2020/12/12 01:36:38;;;;;;;18.83;13.07;;;4.60;99.90;;;;;;4965245;28;20191;-83
2020/12/12 01:39:04;;;;;;;22.20;13.07;;;4.60;99.90;;;;;;4965444;28;20242;-84
2020/12/12 01:41:30;;;;;;;20.03;13.03;;;4.50;99.90;;;;;;4963816;28;20264;-83
2020/12/12 01:43:55;;;;;;;19.57;13.07;;;4.50;99.90;;;;;;4963098;28;20278;-84
2020/12/12 01:46:25;;;;;;;18.10;12.67;;;4.50;99.90;;;;;;4963386;28;20180;-84
2020/12/12 01:48:52;;;;;;;20.00;13.27;;;4.60;99.90;;;;;;4963140;28;20737;-83
2020/12/12 01:51:24;;;;;;;21.40;13.40;;;4.60;99.90;;;;;;4963376;28;20662;-84
2020/12/12 01:53:51;;;;;;;19.07;12.67;;;4.50;99.90;;;;;;4964400;28;20717;-82
2020/12/12 01:56:17;;;;;;;19.07;12.87;;;4.50;99.90;;;;;;4963104;28;20569;-85
2020/12/12 01:58:44;;;;;;;18.67;12.83;;;4.50;99.90;;;;;;4963179;28;20192;-86
2020/12/12 02:01:10;;;;;;;19.30;13.03;;;4.50;99.90;;;;;;4962446;28;20214;-85
2020/12/12 02:03:36;;;;;;;19.00;12.97;;;4.50;99.90;;;;;;4963294;28;20234;-84
2020/12/12 02:06:02;;;;;;;20.87;13.57;;;4.40;99.90;;;;;;4963260;28;20192;-88
2020/12/12 02:08:27;;;;;;;19.00;12.83;;;4.30;99.90;;;;;;4962932;28;20659;-84
2020/12/12 02:10:53;;;;;;;18.87;12.83;;;4.40;99.90;;;;;;4964039;28;20304;-84
2020/12/12 02:13:18;;;;;;;23.33;14.37;;;4.40;99.90;;;;;;4963692;28;20247;-84
2020/12/12 02:15:44;;;;;;;19.57;13.40;;;4.40;99.90;;;;;;4963480;28;20190;-84
2020/12/12 02:18:21;;;;;;;19.30;13.17;;;4.40;99.90;;;;;;4964167;28;20668;-83
2020/12/12 02:20:56;;;;;;;18.73;13.63;;;4.40;99.90;;;;;;4962990;28;20204;-83
2020/12/12 02:23:23;;;;;;;19.83;13.67;;;4.50;99.90;;;;;;4963006;28;20681;-83
2020/12/12 02:25:49;;;;;;;20.97;13.37;;;4.50;99.90;;;;;;4962992;28;20187;-84
2020/12/12 02:28:18;;;;;;;19.63;13.03;;;4.50;99.90;;;;;;4961674;28;20696;-84
2020/12/12 02:30:44;;;;;;;18.90;13.17;;;4.50;99.90;;;;;;4964540;28;20201;-86
2020/12/12 02:33:09;;;;;;;19.33;13.13;;;4.50;99.90;;;;;;4963756;28;20180;-84
2020/12/12 02:35:35;;;;;;;19.23;13.10;;;4.50;99.90;;;;;;4962846;28;20187;-84
2020/12/12 02:38:01;;;;;;;17.87;12.83;;;4.50;99.90;;;;;;4974190;28;20208;-84
2020/12/12 02:40:27;;;;;;;20.27;13.33;;;4.60;99.90;;;;;;4975570;28;20291;-84
2020/12/12 02:42:52;;;;;;;19.73;13.57;;;4.50;99.90;;;;;;4962556;28;20223;-87
2020/12/12 02:45:19;;;;;;;19.83;13.37;;;4.50;99.90;;;;;;4963546;28;20230;-84
2020/12/12 02:47:46;;;;;;;19.90;12.70;;;4.60;99.90;;;;;;4963860;28;20192;-85
2020/12/12 02:50:12;;;;;;;17.50;12.73;;;4.60;99.90;;;;;;4964845;28;20315;-84
2020/12/12 02:52:38;;;;;;;20.13;12.50;;;4.60;99.90;;;;;;4963859;28;20187;-84
2020/12/12 02:55:08;;;;;;;18.70;12.93;;;4.70;99.90;;;;;;4964262;28;20180;-83
2020/12/12 02:57:35;;;;;;;18.77;12.70;;;4.60;99.90;;;;;;4964114;28;20578;-85
2020/12/12 03:00:04;;;;;;;19.43;12.97;;;4.60;99.90;;;;;;4963589;28;20177;-84
2020/12/12 03:02:30;;;;;;;18.43;12.57;;;4.70;99.90;;;;;;4963497;28;20181;-84
2020/12/12 03:04:55;;;;;;;19.80;13.23;;;4.80;99.90;;;;;;4962484;28;20189;-83
2020/12/12 03:07:21;;;;;;;17.60;12.20;;;4.80;99.90;;;;;;4963448;28;20180;-85
2020/12/12 03:09:46;;;;;;;17.20;12.00;;;4.80;99.90;;;;;;4963957;28;20212;-84
2020/12/12 03:12:12;;;;;;;17.57;12.57;;;4.70;99.90;;;;;;4963720;28;20208;-86
2020/12/12 03:14:38;;;;;;;17.40;12.33;;;4.80;99.90;;;;;;4963515;28;20288;-84
2020/12/12 03:17:03;;;;;;;16.57;12.30;;;4.70;99.90;;;;;;4963597;28;20180;-85
2020/12/12 03:19:29;;;;;;;17.53;12.70;;;4.80;99.90;;;;;;4963446;28;20242;-85
2020/12/12 03:21:55;;;;;;;17.57;12.13;;;4.80;99.90;;;;;;4963461;28;20273;-84
2020/12/12 03:24:20;;;;;;;17.67;12.37;;;4.80;99.90;;;;;;4963851;28;20206;-85
2020/12/12 03:26:46;;;;;;;17.40;12.37;;;4.80;99.90;;;;;;4963476;28;20520;-85
2020/12/12 03:29:12;;;;;;;18.97;13.07;;;4.80;99.90;;;;;;4963636;28;20219;-85
2020/12/12 03:31:37;;;;;;;17.37;12.23;;;4.80;99.90;;;;;;4963482;28;20311;-85
2020/12/12 03:34:03;;;;;;;17.33;11.63;;;4.80;99.90;;;;;;4963312;28;20658;-85
2020/12/12 03:36:28;;;;;;;17.57;12.63;;;4.80;99.90;;;;;;4962984;28;20230;-84
2020/12/12 03:38:54;;;;;;;17.30;12.07;;;4.80;99.90;;;;;;4962937;28;20192;-85
2020/12/12 03:41:20;;;;;;;15.60;11.53;;;4.90;99.90;;;;;;4962907;28;20196;-85
2020/12/12 03:43:46;;;;;;;18.97;11.97;;;5.00;99.90;;;;;;4962750;28;20844;-84
2020/12/12 03:46:11;;;;;;;16.93;11.73;;;5.10;99.90;;;;;;4963325;28;20274;-84
2020/12/12 03:48:37;;;;;;;16.60;12.57;;;5.00;99.90;;;;;;4963381;28;20302;-84
2020/12/12 03:51:02;;;;;;;16.83;12.10;;;4.90;99.90;;;;;;4963271;28;20207;-84
2020/12/12 03:53:28;;;;;;;20.27;11.93;;;5.00;99.90;;;;;;4962741;28;20176;-84
2020/12/12 03:55:54;;;;;;;17.37;11.43;;;5.00;99.90;;;;;;4962439;28;20246;-82
2020/12/12 03:58:19;;;;;;;16.50;11.27;;;4.90;99.90;;;;;;4963274;28;20499;-82
2020/12/12 04:00:45;;;;;;;15.83;11.17;;;4.90;99.90;;;;;;4962845;28;20203;-82
2020/12/12 04:03:11;;;;;;;15.93;11.43;;;4.90;99.90;;;;;;4962679;28;20176;-83
2020/12/12 04:05:36;;;;;;;17.00;11.60;;;4.80;99.90;;;;;;4962916;28;20247;-84
2020/12/12 04:08:02;;;;;;;16.90;11.53;;;4.80;99.90;;;;;;4962875;28;20271;-83
2020/12/12 04:10:28;;;;;;;15.70;11.27;;;4.80;99.90;;;;;;4963080;28;20285;-83
2020/12/12 04:12:53;;;;;;;14.43;10.73;;;4.90;99.90;;;;;;4963750;28;20187;-82
2020/12/12 04:15:19;;;;;;;18.83;11.53;;;5.00;99.90;;;;;;4963686;28;20235;-83
2020/12/12 04:17:44;;;;;;;15.27;10.97;;;5.00;99.90;;;;;;4963682;28;20181;-83
2020/12/12 04:20:10;;;;;;;15.07;10.77;;;5.00;99.90;;;;;;4963329;28;20168;-85
2020/12/12 04:22:36;;;;;;;16.77;11.60;;;5.10;99.90;;;;;;4962984;28;20183;-83
2020/12/12 04:25:01;;;;;;;16.00;10.37;;;5.00;99.90;;;;;;4962158;28;20183;-85
2020/12/12 04:27:30;;;;;;;15.90;11.30;;;5.00;99.90;;;;;;4962996;28;20195;-83
2020/12/12 04:29:56;;;;;;;15.57;10.50;;;5.10;99.90;;;;;;4962506;28;20222;-84
2020/12/12 04:32:22;;;;;;;17.47;11.37;;;5.20;99.90;;;;;;4962089;28;20180;-83
2020/12/12 04:34:47;;;;;;;13.83;10.40;;;5.10;99.90;;;;;;4962005;28;20230;-83
2020/12/12 04:37:13;;;;;;;15.73;11.03;;;5.10;99.90;;;;;;4962814;28;20230;-84
2020/12/12 04:39:39;;;;;;;15.03;11.07;;;5.00;99.90;;;;;;4965237;28;20192;-82
2020/12/12 04:42:04;;;;;;;14.90;10.33;;;5.20;99.90;;;;;;4965689;28;20215;-83
2020/12/12 04:44:30;;;;;;;14.67;10.67;;;5.20;99.90;;;;;;4965305;28;20192;-82
2020/12/12 04:46:56;;;;;;;16.33;11.27;;;5.10;99.90;;;;;;4965406;28;20242;-83
2020/12/12 04:49:22;;;;;;;15.27;10.93;;;5.20;99.90;;;;;;4949890;28;20220;-83
2020/12/12 04:51:48;;;;;;;15.83;10.60;;;5.10;99.90;;;;;;4965186;28;20258;-83
2020/12/12 04:54:20;;;;;;;15.17;10.90;;;5.20;99.90;;;;;;4965115;28;20231;-83
2020/12/12 04:56:46;;;;;;;14.97;10.93;;;5.10;99.90;;;;;;4965895;28;20207;-86
2020/12/12 04:59:12;;;;;;;15.37;11.10;;;5.10;99.90;;;;;;4965658;28;20653;-83
2020/12/12 05:01:38;;;;;;;17.03;11.47;;;5.10;99.90;;;;;;4965240;28;20291;-84
2020/12/12 05:04:04;;;;;;;18.57;11.70;;;5.00;99.90;;;;;;4965448;28;20215;-84
2020/12/12 05:06:30;;;;;;;15.33;10.90;;;5.10;99.90;;;;;;4965447;28;20189;-85
2020/12/12 05:08:56;;;;;;;17.27;11.57;;;5.20;99.90;;;;;;4966015;28;20211;-86
2020/12/12 05:11:23;;;;;;;15.77;10.97;;;5.10;99.90;;;;;;4966241;28;20302;-85
2020/12/12 05:13:49;;;;;;;15.90;10.90;;;5.20;99.90;;;;;;4966359;28;20231;-85
2020/12/12 05:16:14;;;;;;;13.97;10.63;;;5.20;99.90;;;;;;4966328;28;20181;-84
2020/12/12 05:18:41;;;;;;;16.50;11.40;;;5.10;99.90;;;;;;4967097;28;20180;-87
2020/12/12 05:21:07;;;;;;;16.97;10.57;;;5.10;99.90;;;;;;4966946;28;20208;-84
2020/12/12 05:23:32;;;;;;;16.93;11.43;;;5.20;99.90;;;;;;4965548;28;20195;-85
2020/12/12 05:25:58;;;;;;;15.63;11.00;;;5.10;99.90;;;;;;4965926;28;20195;-84
2020/12/12 05:28:24;;;;;;;16.10;11.27;;;5.10;99.90;;;;;;4966243;28;20216;-84
2020/12/12 05:30:51;;;;;;;14.70;10.67;;;5.10;99.90;;;;;;4966033;28;20238;-85
2020/12/12 05:33:23;;;;;;;13.77;10.30;;;5.10;99.90;;;;;;4966437;28;20254;-88
2020/12/12 05:35:49;;;;;;;15.30;10.47;;;5.20;99.90;;;;;;4966027;28;20188;-86
2020/12/12 05:38:14;;;;;;;13.87;10.33;;;5.10;99.90;;;;;;4965609;28;20191;-88
2020/12/12 05:40:42;;;;;;;13.57;10.10;;;5.20;99.90;;;;;;4964782;28;20201;-84
2020/12/12 05:43:09;;;;;;;14.00;10.53;;;5.10;99.90;;;;;;4965198;28;20563;-83
2020/12/12 05:45:36;;;;;;;14.50;9.90;;;5.10;99.90;;;;;;4981121;28;20172;-85
2020/12/12 05:48:03;;;;;;;14.80;10.30;;;5.20;99.90;;;;;;4965655;28;20204;-84
2020/12/12 05:50:31;;;;;;;13.83;10.10;;;5.30;99.90;;;;;;4965112;28;20689;-86
2020/12/12 05:52:57;;;;;;;12.97;9.90;;;5.20;99.90;;;;;;4965811;28;20613;-85
2020/12/12 05:55:26;;;;;;;12.60;9.60;;;5.40;99.90;;;;;;4966400;28;20195;-85
2020/12/12 05:57:55;;;;;;;13.83;10.13;;;5.40;99.90;;;;;;4982234;28;20180;-84
2020/12/12 06:00:21;;;;;;;14.10;9.37;;;5.40;99.90;;;;;;4966066;28;20200;-85
2020/12/12 06:02:58;;;;;;;13.07;9.80;;;5.30;99.90;;;;;;4965432;28;20271;-84
2020/12/12 06:05:28;;;;;;;12.90;9.27;;;5.30;99.90;;;;;;4965160;28;20633;-85
2020/12/12 06:08:01;;;;;;;14.87;8.87;;;5.30;99.90;;;;;;4965082;28;20551;-85
2020/12/12 06:10:33;;;;;;;11.60;8.73;;;5.20;99.90;;;;;;4962765;28;20196;-84
2020/12/12 06:13:00;;;;;;;12.00;9.00;;;5.30;99.90;;;;;;4962535;28;20242;-83
2020/12/12 06:15:40;;;;;;;11.37;8.40;;;5.30;99.90;;;;;;4962286;28;20176;-84
2020/12/12 06:18:21;;;;;;;10.93;8.47;;;5.30;99.90;;;;;;4978518;28;20532;-84
2020/12/12 06:20:50;;;;;;;10.97;8.73;;;5.30;99.90;;;;;;4978872;28;20621;-83
2020/12/12 06:23:16;;;;;;;11.00;8.10;;;5.30;99.90;;;;;;4962601;28;20648;-84
2020/12/12 06:25:41;;;;;;;11.23;8.40;;;5.30;99.90;;;;;;4962236;28;20192;-85
2020/12/12 06:28:07;;;;;;;13.50;8.30;;;5.30;99.90;;;;;;4962028;28;20226;-83
2020/12/12 06:30:33;;;;;;;10.60;7.87;;;5.30;99.90;;;;;;4962806;28;20204;-84
2020/12/12 06:33:03;;;;;;;10.50;8.10;;;5.30;99.90;;;;;;4962798;28;20180;-81
2020/12/12 06:35:32;;;;;;;10.27;7.90;;;5.40;99.90;;;;;;4962740;28;20181;-83
2020/12/12 06:38:19;;;;;;;10.90;7.87;;;5.40;99.90;;;;;;4962387;28;20190;-83
2020/12/12 06:40:45;;;;;;;10.13;8.20;;;5.40;99.90;;;;;;4964359;28;20204;-83
2020/12/12 06:43:30;;;;;;;12.43;8.40;;;5.30;99.90;;;;;;4962192;28;20191;-84
2020/12/12 06:45:56;;;;;;;10.50;8.03;;;5.30;99.90;;;;;;4963127;28;20184;-83
2020/12/12 06:48:23;;;;;;;10.63;7.90;;;5.40;99.90;;;;;;4978939;28;20203;-85
2020/12/12 06:50:49;;;;;;;10.20;8.07;;;5.40;99.90;;;;;;4962621;28;20242;-83
2020/12/12 06:53:25;;;;;;;10.20;7.67;;;5.30;99.90;;;;;;4962014;28;20184;-84
2020/12/12 06:56:12;;;;;;;11.43;8.20;;;5.30;99.90;;;;;;4962637;28;20180;-85
2020/12/12 06:58:38;;;;;;;10.43;7.60;;;5.30;99.90;;;;;;4965249;28;20203;-83
2020/12/12 07:01:29;;;;;;;10.17;7.67;;;5.30;99.90;;;;;;4962280;28;20213;-82
2020/12/12 07:04:00;;;;;;;10.13;8.00;;;5.40;99.90;;;;;;4978441;28;20661;-82
2020/12/12 07:06:26;;;;;;;9.23;7.57;;;5.40;99.90;;;;;;4962417;28;20192;-82
2020/12/12 07:08:52;;;;;;;9.80;7.53;;;5.60;99.90;;;;;;4962674;28;20216;-83
2020/12/12 07:11:24;;;;;;;10.57;8.20;;;5.60;99.90;;;;;;4962142;28;20200;-85
2020/12/12 07:13:50;;;;;;;10.80;7.90;;;5.50;99.90;;;;;;4963331;28;20192;-84
2020/12/12 07:16:15;;;;;;;10.53;8.33;;;5.50;99.90;;;;;;4963241;28;20185;-85
2020/12/12 07:18:41;;;;;;;12.50;8.53;;;5.40;99.90;;;;;;4964231;28;20556;-86
2020/12/12 07:21:07;;;;;;;11.30;8.37;;;5.50;99.90;;;;;;4964448;28;20211;-80
2020/12/12 07:23:32;;;;;;;11.33;8.03;;;5.40;99.90;;;;;;4964014;28;20476;-80
2020/12/12 07:25:58;;;;;;;9.87;7.83;;;5.40;99.90;;;;;;4964832;28;20187;-81
2020/12/12 07:28:23;;;;;;;14.97;10.73;;;5.50;99.90;;;;;;4964976;28;20248;-82
2020/12/12 07:30:49;;;;;;;10.73;8.63;;;5.60;99.90;;;;;;4963704;28;20248;-83
2020/12/12 07:33:15;;;;;;;10.87;7.90;;;5.60;99.90;;;;;;4963568;28;20180;-81
2020/12/12 07:35:40;;;;;;;13.07;9.50;;;5.50;99.90;;;;;;4963050;28;20186;-82
2020/12/12 07:38:06;;;;;;;11.53;8.63;;;5.60;99.90;;;;;;4973449;28;20184;-82
2020/12/12 07:40:35;;;;;;;10.13;8.33;;;5.50;99.90;;;;;;4979970;28;20209;-82
2020/12/12 07:43:10;;;;;;;11.17;8.47;;;5.50;99.90;;;;;;4977690;28;20184;-82
2020/12/12 07:48:05;;;;;;;10.20;7.70;;;5.50;99.90;;;;;;4978985;28;20204;-83
2020/12/12 07:50:31;;;;;;;9.83;8.00;;;5.50;99.90;;;;;;4978572;28;20265;-84
2020/12/12 07:53:05;;;;;;;11.77;8.27;;;5.40;99.90;;;;;;4978325;28;20598;-83
2020/12/12 07:55:32;;;;;;;10.37;7.90;;;5.40;99.90;;;;;;4979945;28;20176;-84
2020/12/12 07:57:58;;;;;;;9.43;8.00;;;5.50;99.90;;;;;;4978419;28;20186;-82
2020/12/12 08:00:24;;;;;;;9.43;7.67;;;5.60;99.90;;;;;;4978130;28;20199;-85
2020/12/12 08:02:59;;;;;;;10.30;8.03;;;5.80;99.90;;;;;;4978483;28;20176;-82
2020/12/12 08:05:25;;;;;;;10.27;8.00;;;5.70;99.90;;;;;;4978127;28;20181;-83
2020/12/12 08:07:50;;;;;;;9.70;7.70;;;5.70;99.90;;;;;;4977707;28;20182;-84
2020/12/12 08:10:16;;;;;;;10.00;7.73;;;5.80;99.90;;;;;;4962010;28;20196;-84
2020/12/12 08:12:42;;;;;;;10.13;7.73;;;5.80;99.90;;;;;;4977631;28;20172;-82
2020/12/12 08:15:17;;;;;;;9.33;7.87;;;5.70;99.90;;;;;;4977780;28;20369;-83
2020/12/12 08:17:44;;;;;;;9.57;7.90;;;5.80;99.90;;;;;;4978295;28;20227;-82
2020/12/12 08:20:17;;;;;;;10.47;8.10;;;5.80;99.90;;;;;;4978146;28;20263;-82
2020/12/12 08:22:43;;;;;;;9.13;7.43;;;5.80;99.90;;;;;;4977605;28;20210;-82
2020/12/12 08:25:09;;;;;;;8.90;7.00;;;5.80;99.90;;;;;;4961304;28;20638;-80
2020/12/12 08:27:35;;;;;;;9.77;7.77;;;5.80;99.90;;;;;;4979184;28;20192;-82
2020/12/12 08:30:02;;;;;;;10.77;8.07;;;5.90;99.90;;;;;;4977515;28;20561;-84
2020/12/12 08:32:33;;;;;;;9.13;7.50;;;5.90;99.90;;;;;;4977851;28;20184;-83
2020/12/12 08:35:12;;;;;;;12.13;7.87;;;5.90;99.90;;;;;;4993643;28;20219;-84
2020/12/12 08:37:38;;;;;;;10.03;8.23;;;5.90;99.90;;;;;;4977389;28;20206;-82
2020/12/12 08:40:08;;;;;;;10.47;7.80;;;5.90;99.90;;;;;;4976998;28;20683;-82
2020/12/12 08:42:34;;;;;;;10.37;8.07;;;5.90;99.90;;;;;;4976451;28;20192;-82
2020/12/12 08:45:15;;;;;;;12.07;7.30;;;5.90;99.90;;;;;;4977361;28;20263;-82
2020/12/12 08:47:41;;;;;;;9.27;7.50;;;6.00;99.90;;;;;;4978140;28;20179;-84
2020/12/12 08:50:07;;;;;;;9.37;7.40;;;6.10;99.90;;;;;;4989685;28;20211;-81
2020/12/12 08:52:32;;;;;;;9.60;7.60;;;6.00;99.90;;;;;;4968007;28;20182;-82
2020/12/12 08:54:59;;;;;;;9.40;7.57;;;6.00;99.90;;;;;;4997292;28;20214;-85
2020/12/12 08:57:25;;;;;;;9.70;7.57;;;6.00;99.90;;;;;;4968977;28;20360;-84
2020/12/12 08:59:58;;;;;;;10.77;7.63;;;6.00;99.90;;;;;;4974725;28;20202;-84
2020/12/12 09:02:24;;;;;;;10.37;7.80;;;5.90;99.90;;;;;;4997685;28;20188;-86
2020/12/12 09:05:09;;;;;;;8.83;7.70;;;5.90;99.90;;;;;;4966391;28;20203;-83
2020/12/12 09:07:35;;;;;;;10.73;7.77;;;6.00;99.90;;;;;;4972307;28;20189;-80
2020/12/12 09:10:08;;;;;;;9.90;7.83;;;6.10;99.90;;;;;;4972141;28;20279;-83
2020/12/12 09:12:46;;;;;;;12.70;7.87;;;6.10;99.90;;;;;;4981557;28;20673;-84
2020/12/12 09:15:12;;;;;;;12.33;7.53;;;6.10;99.90;;;;;;4961377;28;20188;-85
2020/12/12 09:17:38;;;;;;;13.27;7.90;;;6.10;99.90;;;;;;4976790;28;20708;-83
2020/12/12 09:20:06;;;;;;;11.20;7.53;;;6.10;99.90;;;;;;4977318;28;20271;-85
2020/12/12 09:22:32;;;;;;;11.73;8.50;;;6.10;99.90;;;;;;4978072;28;20668;-88
2020/12/12 09:24:57;;;;;;;9.43;7.97;;;6.20;99.90;;;;;;4964177;28;20188;-80
2020/12/12 09:27:23;;;;;;;10.20;7.50;;;6.20;99.90;;;;;;4975575;28;20646;-80
2020/12/12 09:29:48;;;;;;;9.87;7.50;;;6.20;99.90;;;;;;4964044;28;20251;-79
2020/12/12 09:32:14;;;;;;;8.87;6.87;;;6.10;99.90;;;;;;4964314;28;20246;-79
2020/12/12 09:34:40;;;;;;;11.17;7.43;;;6.20;99.90;;;;;;4967213;28;20175;-79
2020/12/12 09:37:06;;;;;;;10.53;7.60;;;6.20;99.90;;;;;;4963977;28;20445;-78
2020/12/12 09:39:31;;;;;;;9.30;7.23;;;6.30;99.90;;;;;;4979500;28;20188;-82
2020/12/12 09:42:00;;;;;;;11.27;7.47;;;6.20;99.90;;;;;;4995624;28;20291;-83
2020/12/12 09:44:26;;;;;;;10.30;7.40;;;6.30;99.90;;;;;;4981516;28;20176;-81
2020/12/12 09:46:53;;;;;;;10.13;7.17;;;6.30;99.90;;;;;;4979525;28;20702;-79
2020/12/12 09:49:19;;;;;;;8.20;6.70;;;6.30;99.90;;;;;;4979482;28;20673;-79
2020/12/12 09:51:45;;;;;;;9.90;7.60;;;6.20;99.90;;;;;;4982737;28;20206;-82
2020/12/12 09:54:11;;;;;;;8.13;6.70;;;6.20;99.90;;;;;;4982906;28;20184;-79
2020/12/12 09:56:37;;;;;;;8.27;6.67;;;6.30;99.90;;;;;;4982776;28;20180;-82
2020/12/12 09:59:03;;;;;;;8.57;7.60;;;6.30;99.90;;;;;;4983295;28;20187;-84
2020/12/12 10:01:29;;;;;;;9.53;7.27;;;6.20;99.90;;;;;;4980355;28;20204;-83
2020/12/12 10:03:54;;;;;;;10.03;8.00;;;6.30;99.90;;;;;;4963689;28;20187;-81
2020/12/12 10:06:20;;;;;;;9.30;7.67;;;6.30;99.90;;;;;;4964289;28;20261;-82
2020/12/12 10:08:46;;;;;;;8.97;7.43;;;6.30;99.90;;;;;;4964379;28;20208;-82
2020/12/12 10:11:12;;;;;;;7.80;7.00;;;6.30;99.90;;;;;;4963597;28;20255;-81
2020/12/12 10:13:37;;;;;;;7.97;6.90;;;6.40;99.90;;;;;;4964037;28;20191;-82
2020/12/12 10:16:03;;;;;;;8.43;7.30;;;6.30;99.90;;;;;;4964300;28;20291;-81
2020/12/12 10:18:29;;;;;;;9.63;7.80;;;6.30;99.90;;;;;;4963437;28;20273;-81
2020/12/12 10:20:54;;;;;;;9.90;8.20;;;6.30;99.90;;;;;;4979507;28;20243;-82
2020/12/12 10:23:20;;;;;;;13.97;8.10;;;6.30;99.90;;;;;;4979145;28;20298;-83
2020/12/12 10:25:46;;;;;;;8.40;7.50;;;6.50;99.90;;;;;;4979078;28;20692;-84
2020/12/12 10:28:11;;;;;;;10.30;7.83;;;6.40;99.90;;;;;;4979025;28;20216;-83
2020/12/12 10:30:37;;;;;;;11.03;8.13;;;6.50;99.90;;;;;;4980059;28;20293;-82
2020/12/12 10:33:03;;;;;;;10.43;8.03;;;6.50;99.90;;;;;;4980304;28;20704;-81
2020/12/12 10:35:29;;;;;;;9.70;8.07;;;6.40;99.90;;;;;;4979296;28;20180;-82
2020/12/12 10:37:56;;;;;;;10.77;8.27;;;6.50;99.90;;;;;;4978493;28;20661;-82
2020/12/12 10:42:50;;;;;;;11.50;8.20;;;6.60;99.90;;;;;;4977396;28;20286;-81
2020/12/12 10:45:16;;;;;;;12.17;8.73;;;6.70;99.90;;;;;;4973184;28;20181;-82
2020/12/12 10:47:42;;;;;;;10.37;8.00;;;6.70;99.90;;;;;;4962414;28;20228;-82
2020/12/12 10:50:07;;;;;;;12.83;8.93;;;6.70;99.90;;;;;;4957587;28;20216;-82
2020/12/12 10:52:34;;;;;;;10.07;7.77;;;6.70;99.90;;;;;;4957308;28;20213;-82
2020/12/12 10:55:00;;;;;;;10.20;8.27;;;6.70;99.90;;;;;;4958427;28;20192;-82
2020/12/12 10:57:26;;;;;;;12.17;8.70;;;6.80;99.90;;;;;;4958669;28;20181;-81
2020/12/12 10:59:51;;;;;;;10.57;8.67;;;6.80;99.90;;;;;;4958479;28;20183;-82
2020/12/12 11:02:17;;;;;;;10.00;8.60;;;6.80;99.90;;;;;;4973851;28;20215;-81
2020/12/12 11:04:43;;;;;;;13.20;8.43;;;6.90;99.90;;;;;;4977756;28;20196;-82
2020/12/12 11:07:09;;;;;;;10.83;8.40;;;6.90;99.90;;;;;;4978096;28;20700;-80
2020/12/12 11:09:35;;;;;;;13.30;8.60;;;6.90;99.90;;;;;;4978814;28;20211;-81
2020/12/12 11:12:01;;;;;;;13.17;8.93;;;7.00;99.90;;;;;;4978598;28;20208;-80
2020/12/12 11:14:29;;;;;;;12.03;9.50;;;6.90;99.90;;;;;;4978039;28;20177;-81
2020/12/12 11:16:55;;;;;;;10.70;8.17;;;6.90;99.90;;;;;;4977837;28;20558;-82
2020/12/12 11:19:21;;;;;;;12.57;8.80;;;6.90;99.90;;;;;;4978051;28;20180;-80
2020/12/12 11:21:47;;;;;;;13.57;9.53;;;6.90;99.90;;;;;;4963123;28;20288;-80
2020/12/12 11:24:13;;;;;;;12.00;9.23;;;6.90;99.90;;;;;;4980393;28;20195;-80
2020/12/12 11:26:39;;;;;;;11.40;9.30;;;6.90;99.90;;;;;;4977496;28;20302;-79
2020/12/12 11:29:04;;;;;;;11.53;9.03;;;7.00;99.90;;;;;;4977896;28;20207;-80
2020/12/12 11:31:30;;;;;;;13.67;9.67;;;7.00;99.90;;;;;;4978908;28;20203;-80
2020/12/12 11:34:07;;;;;;;11.90;8.97;;;7.00;99.90;;;;;;4962649;28;20257;-79
2020/12/12 11:39:13;;;;;;;13.67;9.40;;;7.10;99.90;;;;;;4980265;28;20178;-80
2020/12/12 11:45:24;;;;;;;12.33;8.93;;;7.10;99.90;;;;;;4979807;28;20194;-80
2020/12/12 11:47:04;;;;;;;13.60;9.10;;;7.10;99.90;;;;;;4972606;28;20192;-82
2020/12/12 11:49:30;;;;;;;15.50;9.57;;;7.10;99.90;;;;;;4978075;28;20616;-82
2020/12/12 11:51:56;;;;;;;14.67;9.90;;;7.10;99.90;;;;;;4977874;28;20670;-82
2020/12/12 11:54:21;;;;;;;14.37;9.87;;;7.10;99.90;;;;;;4978602;28;20180;-83
2020/12/12 11:56:47;;;;;;;17.43;10.20;;;7.20;99.90;;;;;;4962537;28;20652;-80
2020/12/12 11:59:14;;;;;;;16.00;11.20;;;7.20;99.90;;;;;;4978554;28;20187;-80
2020/12/12 12:01:40;;;;;;;15.67;10.53;;;7.20;99.90;;;;;;4962817;28;20691;-80
2020/12/12 12:04:05;;;;;;;17.63;10.63;;;7.20;99.90;;;;;;4961999;28;20180;-80
2020/12/12 12:06:31;;;;;;;13.63;9.83;;;7.20;99.90;;;;;;4961943;28;20646;-79
2020/12/12 12:11:30;;;;;;;17.00;10.73;;;7.20;99.90;;;;;;4998807;28;20211;-80
2020/12/12 12:13:59;;;;;;;16.47;10.33;;;7.20;99.90;;;;;;4965530;28;20212;-79
2020/12/12 12:16:25;;;;;;;15.13;10.30;;;7.30;99.90;;;;;;4965267;28;20167;-80
2020/12/12 12:18:51;;;;;;;15.00;10.93;;;7.20;99.90;;;;;;4965587;28;20183;-80
2020/12/12 12:21:16;;;;;;;16.73;10.80;;;7.20;99.90;;;;;;4981154;28;20196;-81
2020/12/12 12:23:42;;;;;;;15.30;11.07;;;7.10;99.90;;;;;;4962698;28;20579;-83
2020/12/12 12:26:08;;;;;;;17.00;10.73;;;7.20;99.90;;;;;;4962509;28;20191;-80
2020/12/12 12:28:35;;;;;;;18.40;11.37;;;7.10;99.90;;;;;;4955885;28;20216;-80
2020/12/12 12:31:01;;;;;;;15.53;10.77;;;7.10;99.90;;;;;;4959799;28;20199;-80
2020/12/12 12:33:26;;;;;;;17.90;10.97;;;7.30;99.90;;;;;;4970629;28;20176;-79
2020/12/12 12:35:52;;;;;;;20.10;11.27;;;7.30;99.90;;;;;;4960653;28;20234;-79
2020/12/12 12:38:18;;;;;;;16.60;11.57;;;7.30;99.90;;;;;;4961822;28;20205;-79
2020/12/12 12:40:44;;;;;;;17.63;12.03;;;7.30;99.90;;;;;;4979295;28;20268;-79
2020/12/12 12:43:09;;;;;;;18.50;11.80;;;7.30;99.90;;;;;;4964712;28;20189;-80
2020/12/12 12:45:38;;;;;;;17.10;11.13;;;7.30;99.90;;;;;;4979027;28;20225;-80
2020/12/12 12:48:04;;;;;;;15.47;11.07;;;7.40;99.90;;;;;;4978403;28;20278;-80
2020/12/12 12:50:36;;;;;;;15.80;11.23;;;7.30;99.90;;;;;;4962816;28;20236;-79
2020/12/12 12:53:11;;;;;;;20.13;12.40;;;7.40;99.90;;;;;;4986225;28;20227;-80
2020/12/12 12:55:37;;;;;;;19.63;12.50;;;7.50;99.90;;;;;;4964946;28;20224;-81